Chemehuevi, California
Current Conditions -  °F | °C
As of 5:56 AM on Monday 24 Nov 2014 (Local Time) from KEED Reporting Station
Clear Clear  
Wind Chill: 46°   Ceiling: Unl
Heat Index: 46°   Visibility: 10mi
Dew Point:   Wind: 0mph
Humidity: 22%   Direction: NA
Pressure: 30.26"   Gusts: NA
Location:  34.5025°N, 114.671°W
Report Text: KEED 241356Z AUTO 00000KT 10SM CLR 08/M13 A3026 RMK AO2 SLP236 T00781128
Loading
Personal Weather Stations






























Interactive Weather Map New forecast layout! Learn more

10-Day Weather Forecast

Advertisements
Track Severe Weather on mobile